RYR7QU LICC-LBSF
Flight info
| Callsign | RYR7QU |
|---|---|
| Flight time | 1h 18m |
| Altitude | 37000 |
| Route | PIMOR Q72 SODMO DCT RUTOM DCT KAS UN731 BITLA T343 MOREK |
| Aircraft | B738/M-SDE2E3FGHIRWXY/LB1 |
Departure
| Time | 2026-04-30 13:50 |
|---|---|
| Airport | Catania-Fontanarossa Airport (LICC) |
Arrival
| Time | 2026-04-30 15:09 |
|---|---|
| Airport | Sofia Airport (LBSF) |
| Time | Latitude | Longitude | Altitude | Speed | Heading |
|---|---|---|---|---|---|
| 2026-04-30 13:20 | 37.46919 | 15.06682 | 23 ft | 0 kts | 353° |
| 2026-04-30 13:40 | 37.46906 | 15.06685 | 21 ft | 4 kts | 353° |
| 2026-04-30 13:40 | 37.46879 | 15.06689 | 23 ft | 4 kts | 349° |
| 2026-04-30 13:40 | 37.46860 | 15.06695 | 23 ft | 2 kts | 326° |
| 2026-04-30 13:40 | 37.46852 | 15.06706 | 25 ft | 2 kts | 283° |
| 2026-04-30 13:41 | 37.46851 | 15.06720 | 25 ft | 2 kts | 266° |
| 2026-04-30 13:41 | 37.46852 | 15.06733 | 25 ft | 0 kts | 263° |
| 2026-04-30 13:44 | 37.46851 | 15.06725 | 25 ft | 2 kts | 265° |
| 2026-04-30 13:44 | 37.46849 | 15.06699 | 24 ft | 4 kts | 263° |
| 2026-04-30 13:45 | 37.46837 | 15.06560 | 21 ft | 11 kts | 263° |
| 2026-04-30 13:45 | 37.46828 | 15.06461 | 21 ft | 12 kts | 264° |
| 2026-04-30 13:45 | 37.46820 | 15.06350 | 21 ft | 16 kts | 264° |
| 2026-04-30 13:46 | 37.46807 | 15.06196 | 24 ft | 18 kts | 264° |
| 2026-04-30 13:46 | 37.46794 | 15.06043 | 21 ft | 17 kts | 264° |
| 2026-04-30 13:46 | 37.46781 | 15.05895 | 21 ft | 17 kts | 264° |
| 2026-04-30 13:46 | 37.46769 | 15.05753 | 21 ft | 16 kts | 264° |
| 2026-04-30 13:47 | 37.46757 | 15.05615 | 21 ft | 16 kts | 264° |
| 2026-04-30 13:47 | 37.46746 | 15.05483 | 21 ft | 15 kts | 264° |
| 2026-04-30 13:47 | 37.46735 | 15.05356 | 22 ft | 14 kts | 264° |
| 2026-04-30 13:47 | 37.46683 | 15.05268 | 21 ft | 5 kts | 220° |
| 2026-04-30 13:48 | 37.46679 | 15.05264 | 21 ft | 2 kts | 220° |
| 2026-04-30 13:48 | 37.46675 | 15.05259 | 21 ft | 2 kts | 220° |
| 2026-04-30 13:48 | 37.46657 | 15.05239 | 21 ft | 4 kts | 220° |
| 2026-04-30 13:48 | 37.46634 | 15.05215 | 21 ft | 6 kts | 220° |
| 2026-04-30 13:49 | 37.46590 | 15.05182 | 21 ft | 8 kts | 181° |
| 2026-04-30 13:49 | 37.46562 | 15.05237 | 22 ft | 9 kts | 92° |
| 2026-04-30 13:49 | 37.46577 | 15.05418 | 22 ft | 49 kts | 84° |
| 2026-04-30 13:49 | 37.46641 | 15.06184 | 20 ft | 123 kts | 84° |
| 2026-04-30 13:50 | 37.46751 | 15.07468 | 322 ft | 157 kts | 83° |
| 2026-04-30 13:50 | 37.47121 | 15.10495 | 1884 ft | 179 kts | 81° |
| 2026-04-30 13:50 | 37.47340 | 15.12135 | 2552 ft | 203 kts | 80° |
| 2026-04-30 13:51 | 37.47594 | 15.14017 | 2876 ft | 230 kts | 79° |
| 2026-04-30 13:51 | 37.47872 | 15.16059 | 3537 ft | 242 kts | 79° |
| 2026-04-30 13:51 | 37.48174 | 15.18255 | 4048 ft | 264 kts | 78° |
| 2026-04-30 13:51 | 37.48489 | 15.20547 | 4897 ft | 272 kts | 78° |
| 2026-04-30 13:52 | 37.48820 | 15.22947 | 5831 ft | 278 kts | 79° |
| 2026-04-30 13:52 | 37.49148 | 15.25327 | 6697 ft | 284 kts | 79° |
| 2026-04-30 13:52 | 37.49487 | 15.27794 | 7585 ft | 288 kts | 79° |
| 2026-04-30 13:52 | 37.49833 | 15.30312 | 8441 ft | 294 kts | 78° |
| 2026-04-30 13:53 | 37.50187 | 15.32884 | 9279 ft | 301 kts | 78° |
| 2026-04-30 13:53 | 37.50551 | 15.35519 | 10125 ft | 307 kts | 78° |
| 2026-04-30 13:53 | 37.50925 | 15.38229 | 10632 ft | 326 kts | 78° |
| 2026-04-30 13:53 | 37.51190 | 15.40146 | 10754 ft | 344 kts | 78° |
| 2026-04-30 13:54 | 37.51758 | 15.44277 | 11349 ft | 366 kts | 78° |
| 2026-04-30 13:54 | 37.52189 | 15.47431 | 12084 ft | 372 kts | 78° |
| 2026-04-30 13:54 | 37.52629 | 15.50665 | 12896 ft | 376 kts | 78° |
| 2026-04-30 13:54 | 37.53073 | 15.53938 | 13653 ft | 382 kts | 78° |
| 2026-04-30 13:55 | 37.53525 | 15.57266 | 14372 ft | 388 kts | 78° |
| 2026-04-30 13:55 | 37.53981 | 15.60631 | 15154 ft | 390 kts | 78° |
| 2026-04-30 13:55 | 37.54436 | 15.64003 | 15938 ft | 392 kts | 78° |
| 2026-04-30 13:55 | 37.54897 | 15.67415 | 16665 ft | 396 kts | 78° |
| 2026-04-30 13:56 | 37.55359 | 15.70846 | 17375 ft | 400 kts | 78° |
| 2026-04-30 13:56 | 37.55821 | 15.74284 | 18078 ft | 404 kts | 78° |
| 2026-04-30 13:56 | 37.56291 | 15.77789 | 18734 ft | 407 kts | 78° |
| 2026-04-30 13:56 | 37.56757 | 15.81271 | 19365 ft | 410 kts | 78° |
| 2026-04-30 13:57 | 37.57232 | 15.84828 | 20010 ft | 412 kts | 78° |
| 2026-04-30 13:57 | 37.57689 | 15.88409 | 20630 ft | 416 kts | 79° |
| 2026-04-30 13:57 | 37.58081 | 15.92035 | 21240 ft | 419 kts | 81° |
| 2026-04-30 13:57 | 37.58407 | 15.95703 | 21843 ft | 422 kts | 82° |
| 2026-04-30 13:58 | 37.58666 | 15.99396 | 22435 ft | 426 kts | 83° |
| 2026-04-30 13:58 | 37.59180 | 16.06887 | 23583 ft | 432 kts | 82° |
| 2026-04-30 13:58 | 37.59478 | 16.10657 | 24044 ft | 435 kts | 81° |
| 2026-04-30 13:59 | 37.59689 | 16.13179 | 24327 ft | 437 kts | 81° |
| 2026-04-30 13:59 | 37.60014 | 16.17007 | 24756 ft | 441 kts | 81° |
| 2026-04-30 13:59 | 37.60345 | 16.20868 | 25033 ft | 444 kts | 81° |
| 2026-04-30 13:59 | 37.60708 | 16.24725 | 25031 ft | 443 kts | 80° |
| 2026-04-30 14:00 | 37.61098 | 16.28578 | 25047 ft | 443 kts | 80° |
| 2026-04-30 14:00 | 37.61903 | 16.36291 | 25060 ft | 443 kts | 80° |
| 2026-04-30 14:00 | 37.62301 | 16.40153 | 25056 ft | 444 kts | 80° |
| 2026-04-30 14:01 | 37.62692 | 16.44015 | 25058 ft | 444 kts | 80° |
| 2026-04-30 14:01 | 37.63074 | 16.47830 | 25056 ft | 444 kts | 80° |
| 2026-04-30 14:01 | 37.63457 | 16.51694 | 25049 ft | 444 kts | 80° |
| 2026-04-30 14:01 | 37.63837 | 16.55554 | 25051 ft | 444 kts | 80° |
| 2026-04-30 14:02 | 37.64216 | 16.59418 | 25054 ft | 444 kts | 81° |
| 2026-04-30 14:02 | 37.64594 | 16.63285 | 25054 ft | 444 kts | 81° |
| 2026-04-30 14:02 | 37.64970 | 16.67153 | 25057 ft | 444 kts | 81° |
| 2026-04-30 14:02 | 37.65346 | 16.71020 | 25053 ft | 444 kts | 81° |
| 2026-04-30 14:03 | 37.65721 | 16.74881 | 25166 ft | 449 kts | 81° |
| 2026-04-30 14:03 | 37.66100 | 16.78802 | 25623 ft | 451 kts | 81° |
| 2026-04-30 14:03 | 37.66477 | 16.82730 | 26167 ft | 450 kts | 81° |
| 2026-04-30 14:03 | 37.66853 | 16.86662 | 26629 ft | 452 kts | 81° |
| 2026-04-30 14:04 | 37.67231 | 16.90625 | 27017 ft | 456 kts | 81° |
| 2026-04-30 14:04 | 37.67612 | 16.94618 | 27400 ft | 459 kts | 81° |
| 2026-04-30 14:04 | 37.67992 | 16.98626 | 27803 ft | 462 kts | 81° |
| 2026-04-30 14:04 | 37.68369 | 17.02614 | 28208 ft | 464 kts | 81° |
| 2026-04-30 14:05 | 37.68751 | 17.06674 | 28608 ft | 466 kts | 81° |
| 2026-04-30 14:05 | 37.69134 | 17.10751 | 28988 ft | 469 kts | 81° |
| 2026-04-30 14:05 | 37.69516 | 17.14847 | 29363 ft | 471 kts | 81° |
| 2026-04-30 14:05 | 37.69901 | 17.18982 | 29726 ft | 474 kts | 81° |
| 2026-04-30 14:06 | 37.70285 | 17.23122 | 30081 ft | 476 kts | 81° |
| 2026-04-30 14:06 | 37.71049 | 17.31419 | 30632 ft | 481 kts | 81° |
| 2026-04-30 14:07 | 37.71821 | 17.39859 | 31155 ft | 486 kts | 81° |
| 2026-04-30 14:07 | 37.72206 | 17.44093 | 31493 ft | 485 kts | 81° |
| 2026-04-30 14:07 | 37.72615 | 17.48319 | 31863 ft | 484 kts | 79° |
| 2026-04-30 14:08 | 37.74507 | 17.56365 | 32393 ft | 475 kts | 51° |
| 2026-04-30 14:08 | 37.76617 | 17.59519 | 32819 ft | 466 kts | 42° |
| 2026-04-30 14:08 | 37.80862 | 17.65737 | 33467 ft | 472 kts | 51° |
| 2026-04-30 14:09 | 37.82653 | 17.69235 | 33779 ft | 475 kts | 54° |
| 2026-04-30 14:09 | 37.84352 | 17.72824 | 34127 ft | 475 kts | 55° |
| 2026-04-30 14:09 | 37.87770 | 17.79923 | 34625 ft | 475 kts | 53° |
| 2026-04-30 14:10 | 37.89575 | 17.83439 | 34866 ft | 475 kts | 52° |
| 2026-04-30 14:10 | 37.91426 | 17.86905 | 35127 ft | 475 kts | 51° |
| 2026-04-30 14:10 | 37.93304 | 17.90342 | 35392 ft | 474 kts | 50° |
| 2026-04-30 14:10 | 37.95193 | 17.93773 | 35637 ft | 475 kts | 50° |
| 2026-04-30 14:11 | 37.97086 | 17.97220 | 35878 ft | 475 kts | 50° |
| 2026-04-30 14:11 | 37.98947 | 18.00627 | 36122 ft | 476 kts | 51° |
| 2026-04-30 14:11 | 38.00827 | 18.04091 | 36357 ft | 476 kts | 51° |
| 2026-04-30 14:11 | 38.02689 | 18.07538 | 36583 ft | 477 kts | 51° |
| 2026-04-30 14:12 | 38.04562 | 18.11018 | 36826 ft | 477 kts | 51° |
| 2026-04-30 14:12 | 38.06434 | 18.14501 | 37048 ft | 478 kts | 51° |
| 2026-04-30 14:12 | 38.08315 | 18.18002 | 37046 ft | 482 kts | 51° |
| 2026-04-30 14:13 | 38.12094 | 18.25048 | 37054 ft | 482 kts | 51° |
| 2026-04-30 14:13 | 38.15810 | 18.31998 | 37049 ft | 475 kts | 51° |
| 2026-04-30 14:14 | 38.19514 | 18.38932 | 37055 ft | 474 kts | 51° |
| 2026-04-30 14:14 | 38.23214 | 18.45870 | 37055 ft | 474 kts | 51° |
| 2026-04-30 14:15 | 38.26911 | 18.52818 | 37061 ft | 474 kts | 51° |
| 2026-04-30 14:15 | 38.30608 | 18.59782 | 37055 ft | 474 kts | 51° |
| 2026-04-30 14:16 | 38.34300 | 18.66751 | 37055 ft | 475 kts | 51° |
| 2026-04-30 14:16 | 38.37999 | 18.73749 | 37057 ft | 476 kts | 51° |
| 2026-04-30 14:17 | 38.41699 | 18.80764 | 37060 ft | 477 kts | 52° |
| 2026-04-30 14:17 | 38.45378 | 18.87756 | 37059 ft | 478 kts | 52° |
| 2026-04-30 14:18 | 38.49106 | 18.94790 | 37052 ft | 478 kts | 49° |
| 2026-04-30 14:18 | 38.56492 | 19.02634 | 37036 ft | 459 kts | 22° |
| 2026-04-30 14:19 | 38.64424 | 19.09584 | 37056 ft | 468 kts | 34° |
| 2026-04-30 14:20 | 38.69422 | 19.14932 | 37046 ft | 469 kts | 34° |
| 2026-04-30 14:20 | 38.77093 | 19.22693 | 37049 ft | 467 kts | 32° |
| 2026-04-30 14:21 | 38.82276 | 19.27738 | 37052 ft | 467 kts | 32° |
| 2026-04-30 14:22 | 38.90018 | 19.35264 | 37046 ft | 467 kts | 32° |
| 2026-04-30 14:22 | 38.97770 | 19.42849 | 37048 ft | 466 kts | 32° |
| 2026-04-30 14:23 | 39.08054 | 19.52955 | 37045 ft | 465 kts | 32° |
| 2026-04-30 14:24 | 39.15771 | 19.60562 | 37043 ft | 464 kts | 32° |
| 2026-04-30 14:25 | 39.25981 | 19.70658 | 37039 ft | 463 kts | 32° |
| 2026-04-30 14:26 | 39.33632 | 19.78250 | 37042 ft | 463 kts | 32° |
| 2026-04-30 14:27 | 39.41301 | 19.85881 | 37044 ft | 463 kts | 32° |
| 2026-04-30 14:27 | 39.46406 | 19.90972 | 37048 ft | 463 kts | 32° |
| 2026-04-30 14:28 | 39.54064 | 19.98628 | 37050 ft | 464 kts | 32° |
| 2026-04-30 14:28 | 39.59173 | 20.03748 | 37052 ft | 464 kts | 32° |
| 2026-04-30 14:29 | 39.68510 | 20.13131 | 37048 ft | 465 kts | 32° |
| 2026-04-30 14:31 | 39.82143 | 20.26889 | 37048 ft | 467 kts | 32° |
| 2026-04-30 14:31 | 39.89835 | 20.34685 | 37038 ft | 467 kts | 32° |
| 2026-04-30 14:32 | 39.97525 | 20.42501 | 37044 ft | 467 kts | 32° |
| 2026-04-30 14:33 | 40.02654 | 20.47724 | 37026 ft | 468 kts | 32° |
| 2026-04-30 14:33 | 40.10349 | 20.55584 | 37027 ft | 468 kts | 32° |
| 2026-04-30 14:34 | 40.15453 | 20.60810 | 37029 ft | 468 kts | 32° |
| 2026-04-30 14:34 | 40.20548 | 20.66036 | 37023 ft | 468 kts | 32° |
| 2026-04-30 14:35 | 40.28211 | 20.73916 | 37000 ft | 466 kts | 32° |
| 2026-04-30 14:36 | 40.33255 | 20.79118 | 37026 ft | 465 kts | 32° |
| 2026-04-30 14:36 | 40.38320 | 20.84349 | 37051 ft | 464 kts | 32° |
| 2026-04-30 14:37 | 40.43412 | 20.89616 | 37038 ft | 467 kts | 32° |
| 2026-04-30 14:37 | 40.48499 | 20.94889 | 37040 ft | 469 kts | 32° |
| 2026-04-30 14:38 | 40.53648 | 21.00239 | 37037 ft | 472 kts | 32° |
| 2026-04-30 14:38 | 40.58817 | 21.05622 | 37046 ft | 474 kts | 32° |
| 2026-04-30 14:39 | 40.63999 | 21.11029 | 37054 ft | 477 kts | 32° |
| 2026-04-30 14:39 | 40.69182 | 21.16448 | 37048 ft | 478 kts | 32° |
| 2026-04-30 14:40 | 40.76981 | 21.24626 | 37091 ft | 478 kts | 32° |
| 2026-04-30 14:40 | 40.82185 | 21.30095 | 37087 ft | 476 kts | 32° |
| 2026-04-30 14:41 | 40.87366 | 21.35557 | 37114 ft | 477 kts | 33° |
| 2026-04-30 14:41 | 40.92353 | 21.41434 | 37122 ft | 483 kts | 38° |
| 2026-04-30 14:42 | 40.96961 | 21.47964 | 37134 ft | 486 kts | 43° |
| 2026-04-30 14:42 | 41.01446 | 21.54572 | 37148 ft | 485 kts | 41° |
| 2026-04-30 14:43 | 41.06064 | 21.61095 | 37161 ft | 484 kts | 40° |
| 2026-04-30 14:43 | 41.10733 | 21.67520 | 37152 ft | 483 kts | 40° |
| 2026-04-30 14:44 | 41.15412 | 21.73937 | 37172 ft | 484 kts | 40° |
| 2026-04-30 14:44 | 41.20092 | 21.80383 | 37182 ft | 485 kts | 40° |
| 2026-04-30 14:45 | 41.24771 | 21.86858 | 37191 ft | 486 kts | 40° |
| 2026-04-30 14:45 | 41.29443 | 21.93342 | 37190 ft | 487 kts | 40° |
| 2026-04-30 14:46 | 41.34120 | 21.99842 | 36798 ft | 494 kts | 41° |
| 2026-04-30 14:46 | 41.36500 | 22.03155 | 36447 ft | 494 kts | 40° |
| 2026-04-30 14:46 | 41.38076 | 22.05355 | 36184 ft | 492 kts | 40° |
| 2026-04-30 14:47 | 41.41221 | 22.09752 | 35661 ft | 489 kts | 40° |
| 2026-04-30 14:47 | 41.43573 | 22.13042 | 35276 ft | 491 kts | 40° |
| 2026-04-30 14:47 | 41.45927 | 22.16335 | 34892 ft | 492 kts | 40° |
| 2026-04-30 14:47 | 41.48280 | 22.19630 | 34519 ft | 493 kts | 40° |
| 2026-04-30 14:48 | 41.49847 | 22.21826 | 34279 ft | 494 kts | 40° |
| 2026-04-30 14:48 | 41.52219 | 22.25154 | 33858 ft | 495 kts | 40° |
| 2026-04-30 14:48 | 41.55368 | 22.29576 | 33286 ft | 497 kts | 40° |
| 2026-04-30 14:48 | 41.56981 | 22.31843 | 33174 ft | 499 kts | 40° |
| 2026-04-30 14:49 | 41.61709 | 22.38511 | 33162 ft | 492 kts | 40° |
| 2026-04-30 14:49 | 41.66399 | 22.45142 | 32691 ft | 495 kts | 40° |
| 2026-04-30 14:50 | 41.71130 | 22.51830 | 31381 ft | 494 kts | 40° |
| 2026-04-30 14:50 | 41.73489 | 22.55174 | 30771 ft | 493 kts | 40° |
| 2026-04-30 14:51 | 41.78100 | 22.61870 | 29703 ft | 486 kts | 43° |
| 2026-04-30 14:51 | 41.80300 | 22.65296 | 29157 ft | 483 kts | 44° |
| 2026-04-30 14:51 | 41.84430 | 22.72229 | 28153 ft | 474 kts | 47° |
| 2026-04-30 14:52 | 41.86421 | 22.75722 | 27667 ft | 469 kts | 47° |
| 2026-04-30 14:52 | 41.90406 | 22.82584 | 26641 ft | 461 kts | 47° |
| 2026-04-30 14:52 | 41.92403 | 22.85942 | 26140 ft | 458 kts | 47° |
| 2026-04-30 14:53 | 41.96387 | 22.92555 | 25152 ft | 451 kts | 47° |
| 2026-04-30 14:53 | 41.98363 | 22.95823 | 24655 ft | 448 kts | 48° |
| 2026-04-30 14:54 | 42.02266 | 23.02295 | 23649 ft | 443 kts | 49° |
| 2026-04-30 14:54 | 42.06083 | 23.08654 | 22591 ft | 436 kts | 49° |
| 2026-04-30 14:55 | 42.09862 | 23.14971 | 21560 ft | 429 kts | 49° |
| 2026-04-30 14:55 | 42.11739 | 23.18112 | 20902 ft | 430 kts | 48° |
| 2026-04-30 14:55 | 42.15451 | 23.24331 | 19906 ft | 423 kts | 49° |
| 2026-04-30 14:56 | 42.19104 | 23.30463 | 18924 ft | 417 kts | 48° |
| 2026-04-30 14:56 | 42.22692 | 23.36498 | 17865 ft | 410 kts | 48° |
| 2026-04-30 14:57 | 42.24464 | 23.39483 | 17364 ft | 405 kts | 48° |
| 2026-04-30 14:57 | 42.27806 | 23.45122 | 16438 ft | 397 kts | 49° |
| 2026-04-30 14:58 | 42.30991 | 23.50505 | 15534 ft | 390 kts | 49° |
| 2026-04-30 14:58 | 42.32674 | 23.53353 | 15089 ft | 385 kts | 49° |
| 2026-04-30 14:58 | 42.35926 | 23.58869 | 14145 ft | 368 kts | 49° |
| 2026-04-30 14:59 | 42.39030 | 23.64144 | 13170 ft | 348 kts | 49° |
| 2026-04-30 15:00 | 42.43385 | 23.71555 | 11884 ft | 325 kts | 49° |
| 2026-04-30 15:00 | 42.46147 | 23.76245 | 11120 ft | 312 kts | 47° |
| 2026-04-30 15:01 | 42.49361 | 23.79491 | 10758 ft | 275 kts | 7° |
| 2026-04-30 15:01 | 42.51208 | 23.79321 | 10322 ft | 264 kts | 340° |
| 2026-04-30 15:01 | 42.54700 | 23.78040 | 9574 ft | 256 kts | 349° |
| 2026-04-30 15:02 | 42.56461 | 23.77796 | 9160 ft | 252 kts | 353° |
| 2026-04-30 15:02 | 42.58200 | 23.77649 | 8813 ft | 248 kts | 354° |
| 2026-04-30 15:03 | 42.63280 | 23.77428 | 7671 ft | 238 kts | 358° |
| 2026-04-30 15:03 | 42.66510 | 23.76946 | 6870 ft | 235 kts | 342° |
| 2026-04-30 15:04 | 42.68268 | 23.73532 | 6209 ft | 240 kts | 271° |
| 2026-04-30 15:04 | 42.68147 | 23.67202 | 5294 ft | 209 kts | 281° |
| 2026-04-30 15:05 | 42.68499 | 23.61585 | 4453 ft | 191 kts | 278° |
| 2026-04-30 15:06 | 42.68696 | 23.58085 | 3948 ft | 177 kts | 277° |
| 2026-04-30 15:06 | 42.68872 | 23.55031 | 3476 ft | 151 kts | 277° |
| 2026-04-30 15:07 | 42.69033 | 23.52245 | 3014 ft | 146 kts | 276° |
| 2026-04-30 15:07 | 42.69192 | 23.49502 | 2580 ft | 145 kts | 276° |
| 2026-04-30 15:08 | 42.69340 | 23.46797 | 2286 ft | 144 kts | 275° |
| 2026-04-30 15:08 | 42.69591 | 23.42716 | 1804 ft | 125 kts | 274° |
| 2026-04-30 15:09 | 42.69678 | 23.41279 | 1803 ft | 46 kts | 275° |
| 2026-04-30 15:09 | 42.69649 | 23.40839 | 1796 ft | 10 kts | 245° |
| 2026-04-30 15:10 | 42.69592 | 23.40669 | 1799 ft | 10 kts | 245° |
| 2026-04-30 15:11 | 42.69244 | 23.40382 | 1800 ft | 17 kts | 196° |
| 2026-04-30 15:11 | 42.69191 | 23.40361 | 1801 ft | 0 kts | 196° |
| 2026-04-30 15:12 | 42.69130 | 23.40421 | 1797 ft | 9 kts | 108° |
| 2026-04-30 15:13 | 42.69080 | 23.40648 | 1804 ft | 18 kts | 106° |
| 2026-04-30 15:14 | 42.69058 | 23.40818 | 1799 ft | 0 kts | 73° |
| 2026-04-30 15:14 | 42.69054 | 23.40829 | 1798 ft | 4 kts | 121° |
| 2026-04-30 15:16 | 42.69001 | 23.40430 | 1801 ft | 19 kts | 287° |
| 2026-04-30 15:17 | 42.69087 | 23.40381 | 1802 ft | 7 kts | 195° |
| 2026-04-30 15:18 | 42.69061 | 23.40371 | 1800 ft | 0 kts | 195° |